Pilgrims Knob, Virginia
Current Conditions -  °F | °C
As of 8:35 AM on Saturday 20 Dec 2014 (Local Time) from KJFZ Reporting Station
Haze Haze  
Wind Chill: 29°   Ceiling: 1600
Heat Index: 29°   Visibility: 3mi
Dew Point: 27°   Wind: 0mph
Humidity: 92%   Direction: NA
Pressure: 30.15"   Gusts: NA
Location:  37.25°N, 81.92°W
Report Text: KJFZ 201335Z AUTO 00000KT 3SM BR OVC016 M01/M03 A3015 RMK AO2 T10151026
Loading
Personal Weather Stations






























Interactive Weather Map New forecast layout! Learn more

10-Day Weather Forecast

Advertisements
Track Severe Weather on mobile